NORTHEAST SUFFOLK  -  Rip Current Statement Rip Current Statement        NORTHWEST SUFFOLK  -  Rip Current Statement Rip Current Statement        SOUTHEAST SUFFOLK  -  Rip Current Statement Rip Current Statement        SOUTHWEST SUFFOLK  -  Rip Current Statement Rip Current Statement      

Active alerts

Northwest Suffolk
  Details for Northwest Suffolk Rip Current Statement
Southwest Suffolk
  Details for Southwest Suffolk Rip Current Statement
Northeast Suffolk
  Details for Northeast Suffolk Rip Current Statement
Southeast Suffolk
  Details for Southeast Suffolk Rip Current Statement


WXM80 ListenWXM80 Stop

You find our weather info also at:

UK Metoffice

WeatherCloud

Weather Underground

Northeastern Weather Network

AWEKAS

Citizen Weather Observer Program (CWOP)

HAMweather, WeatherForYou, PWS Weather


Weather Underground History page Text

Daily Summary for February 26, 2018 Units:  Both    English   Metric
« Previous Day
Next Day »
Daily Weekly Monthly Yearly Custom
  High: Low: Average:
Temperature: 49.0 °F /  9.4 °C 36.9 °F /  2.7 °C 43.6 °F /  6.4 °C
Dew Point: 43.8 °F /  6.6 °C 30.1 °F /  -1.1 °C 38.5 °F /  3.6 °C
Humidity: 99 % 59 % 83 %
Wind Speed: 8.3 mph /  13.4 km/h - 1.3 mph /  2.1 km/h
Wind Gust: 12.7 mph /  20.4 km/h - -
Wind:- - West
Pressure: 30.00 in /  1015.8 hPa 29.76 in /  1007.7 hPa -
Precipitation: 0.00 in /  0 mm    
Historical Graphs
 
 
Tabular Data for February 26, 2018
Time Temperature Dew Point Pressure Wind Wind Speed Wind Gust Humidity Rainfall Rate (Hourly)
00:04 42.4 °F /  5.8 °C 41.9 °F /  5.5 °C 29.77 in /  1008 hPa Calm   3.5 mph /  5.6 km/h 98 % 0.00 in /  0 mm
00:09 42.4 °F /  5.8 °C 41.9 °F /  5.5 °C 29.76 in /  1007.7 hPa West 0.9 mph /  1.4 km/h 2.3 mph /  3.7 km/h 98 % 0.00 in /  0 mm
00:14 42.3 °F /  5.7 °C 41.8 °F /  5.4 °C 29.76 in /  1007.7 hPa West 2.9 mph /  4.7 km/h 4.6 mph /  7.4 km/h 98 % 0.00 in /  0 mm
00:19 42.3 °F /  5.7 °C 41.8 °F /  5.4 °C 29.76 in /  1007.7 hPa Calm   1.2 mph /  1.9 km/h 98 % 0.00 in /  0 mm
00:24 42.3 °F /  5.7 °C 41.8 °F /  5.4 °C 29.76 in /  1007.7 hPa SW 2.8 mph /  4.5 km/h 5.0 mph /  8 km/h 98 % 0.00 in /  0 mm
00:29 42.3 °F /  5.7 °C 41.8 °F /  5.4 °C 29.77 in /  1008 hPa WNW 2.1 mph /  3.4 km/h 3.5 mph /  5.6 km/h 98 % 0.00 in /  0 mm
00:34 42.2 °F /  5.7 °C 41.7 °F /  5.4 °C 29.78 in /  1008.4 hPa WNW 0.5 mph /  0.8 km/h 3.5 mph /  5.6 km/h 98 % 0.00 in /  0 mm
00:39 42.2 °F /  5.7 °C 41.7 °F /  5.4 °C 29.78 in /  1008.4 hPa West 2.2 mph /  3.5 km/h 3.5 mph /  5.6 km/h 98 % 0.00 in /  0 mm
00:44 42.2 °F /  5.7 °C 41.7 °F /  5.4 °C 29.78 in /  1008.4 hPa West 3.5 mph /  5.6 km/h 5.8 mph /  9.3 km/h 98 % 0.00 in /  0 mm
00:49 42.2 °F /  5.7 °C 41.7 °F /  5.4 °C 29.77 in /  1008 hPa WSW 2.0 mph /  3.2 km/h 4.6 mph /  7.4 km/h 98 % 0.00 in /  0 mm
00:54 42.1 °F /  5.6 °C 41.6 °F /  5.3 °C 29.78 in /  1008.4 hPa West 0.6 mph /  1 km/h 3.5 mph /  5.6 km/h 98 % 0.00 in /  0 mm
00:59 42.1 °F /  5.6 °C 41.6 °F /  5.3 °C 29.77 in /  1008 hPa Calm   2.0 mph /  3.2 km/h 98 % 0.00 in /  0 mm
01:04 42.1 °F /  5.6 °C 41.6 °F /  5.3 °C 29.77 in /  1008 hPa West 2.1 mph /  3.4 km/h 4.6 mph /  7.4 km/h 98 % 0.00 in /  0 mm
01:09 42.1 °F /  5.6 °C 41.6 °F /  5.3 °C 29.77 in /  1008 hPa WSW 3.3 mph /  5.3 km/h 4.6 mph /  7.4 km/h 98 % 0.00 in /  0 mm
01:15 42.1 °F /  5.6 °C 41.6 °F /  5.3 °C 29.77 in /  1008 hPa West 1.2 mph /  1.9 km/h 3.5 mph /  5.6 km/h 98 % 0.00 in /  0 mm
01:20 42.1 °F /  5.6 °C 41.6 °F /  5.3 °C 29.77 in /  1008 hPa WSW 3.0 mph /  4.8 km/h 4.6 mph /  7.4 km/h 98 % 0.00 in /  0 mm
01:25 42.1 °F /  5.6 °C 41.6 °F /  5.3 °C 29.77 in /  1008 hPa West 1.9 mph /  3.1 km/h 3.5 mph /  5.6 km/h 98 % 0.00 in /  0 mm
01:30 42.1 °F /  5.6 °C 41.6 °F /  5.3 °C 29.77 in /  1008 hPa West 1.9 mph /  3.1 km/h 3.5 mph /  5.6 km/h 98 % 0.00 in /  0 mm
01:35 42.1 °F /  5.6 °C 41.6 °F /  5.3 °C 29.77 in /  1008 hPa WSW 0.4 mph /  0.6 km/h 4.6 mph /  7.4 km/h 98 % 0.00 in /  0 mm
01:40 42.1 °F /  5.6 °C 41.6 °F /  5.3 °C 29.77 in /  1008 hPa WSW 4.0 mph /  6.4 km/h 4.6 mph /  7.4 km/h 98 % 0.00 in /  0 mm
01:45 42.1 °F /  5.6 °C 41.6 °F /  5.3 °C 29.77 in /  1008 hPa West 2.3 mph /  3.7 km/h 4.6 mph /  7.4 km/h 98 % 0.00 in /  0 mm
01:50 42.1 °F /  5.6 °C 41.6 °F /  5.3 °C 29.78 in /  1008.4 hPa WSW 4.3 mph /  6.9 km/h 4.6 mph /  7.4 km/h 98 % 0.00 in /  0 mm
01:55 42.1 °F /  5.6 °C 41.6 °F /  5.3 °C 29.78 in /  1008.4 hPa West 3.1 mph /  5 km/h 6.9 mph /  11.1 km/h 98 % 0.00 in /  0 mm
02:00 42.1 °F /  5.6 °C 41.6 °F /  5.3 °C 29.79 in /  1008.7 hPa West 0.3 mph /  0.5 km/h   98 % 0.00 in /  0 mm
02:05 42.1 °F /  5.6 °C 41.6 °F /  5.3 °C 29.78 in /  1008.4 hPa West 2.9 mph /  4.7 km/h 4.0 mph /  6.4 km/h 98 % 0.00 in /  0 mm
02:10 42.2 °F /  5.7 °C 41.7 °F /  5.4 °C 29.78 in /  1008.4 hPa West 2.7 mph /  4.3 km/h 3.5 mph /  5.6 km/h 98 % 0.00 in /  0 mm
02:15 42.2 °F /  5.7 °C 41.7 °F /  5.4 °C 29.78 in /  1008.4 hPa West 2.6 mph /  4.2 km/h 3.0 mph /  4.8 km/h 98 % 0.00 in /  0 mm
02:20 42.2 °F /  5.7 °C 41.7 °F /  5.4 °C 29.77 in /  1008 hPa WSW 2.1 mph /  3.4 km/h 3.5 mph /  5.6 km/h 98 % 0.00 in /  0 mm
02:25 42.2 °F /  5.7 °C 41.7 °F /  5.4 °C 29.77 in /  1008 hPa West 3.2 mph /  5.1 km/h 5.8 mph /  9.3 km/h 98 % 0.00 in /  0 mm
02:30 42.2 °F /  5.7 °C 41.7 °F /  5.4 °C 29.77 in /  1008 hPa West 2.2 mph /  3.5 km/h 4.0 mph /  6.4 km/h 98 % 0.00 in /  0 mm
02:35 42.2 °F /  5.7 °C 41.7 °F /  5.4 °C 29.77 in /  1008 hPa West 0.1 mph /  0.2 km/h 2.0 mph /  3.2 km/h 98 % 0.00 in /  0 mm
02:40 42.2 °F /  5.7 °C 41.7 °F /  5.4 °C 29.77 in /  1008 hPa West 1.1 mph /  1.8 km/h 2.3 mph /  3.7 km/h 98 % 0.00 in /  0 mm
02:45 42.2 °F /  5.7 °C 41.7 °F /  5.4 °C 29.78 in /  1008.4 hPa West 0.7 mph /  1.1 km/h 2.3 mph /  3.7 km/h 98 % 0.00 in /  0 mm
02:50 42.2 °F /  5.7 °C 41.7 °F /  5.4 °C 29.77 in /  1008 hPa West 2.2 mph /  3.5 km/h 7.0 mph /  11.3 km/h 98 % 0.00 in /  0 mm
02:55 42.2 °F /  5.7 °C 41.7 °F /  5.4 °C 29.77 in /  1008 hPa WSW 0.3 mph /  0.5 km/h 3.5 mph /  5.6 km/h 98 % 0.00 in /  0 mm
03:01 42.3 °F /  5.7 °C 41.8 °F /  5.4 °C 29.77 in /  1008 hPa NW 1.2 mph /  1.9 km/h 4.0 mph /  6.4 km/h 98 % 0.00 in /  0 mm
03:06 42.3 °F /  5.7 °C 41.8 °F /  5.4 °C 29.77 in /  1008 hPa WNW 2.0 mph /  3.2 km/h 5.0 mph /  8 km/h 98 % 0.00 in /  0 mm
03:11 42.3 °F /  5.7 °C 41.8 °F /  5.4 °C 29.77 in /  1008 hPa West 1.9 mph /  3.1 km/h 3.5 mph /  5.6 km/h 98 % 0.00 in /  0 mm
03:16 42.3 °F /  5.7 °C 41.8 °F /  5.4 °C 29.78 in /  1008.4 hPa West 2.0 mph /  3.2 km/h 8.0 mph /  12.9 km/h 98 % 0.00 in /  0 mm
03:21 42.4 °F /  5.8 °C 41.9 °F /  5.5 °C 29.77 in /  1008 hPa West 2.0 mph /  3.2 km/h 5.0 mph /  8 km/h 98 % 0.00 in /  0 mm
03:26 42.4 °F /  5.8 °C 41.9 °F /  5.5 °C 29.77 in /  1008 hPa West 2.7 mph /  4.3 km/h 4.6 mph /  7.4 km/h 98 % 0.00 in /  0 mm
03:31 42.4 °F /  5.8 °C 41.9 °F /  5.5 °C 29.77 in /  1008 hPa West 1.0 mph /  1.6 km/h 4.0 mph /  6.4 km/h 98 % 0.00 in /  0 mm
03:36 42.4 °F /  5.8 °C 41.9 °F /  5.5 °C 29.77 in /  1008 hPa West 2.0 mph /  3.2 km/h 6.0 mph /  9.7 km/h 98 % 0.00 in /  0 mm
03:41 42.4 °F /  5.8 °C 41.9 °F /  5.5 °C 29.78 in /  1008.4 hPa West 2.0 mph /  3.2 km/h 5.0 mph /  8 km/h 98 % 0.00 in /  0 mm
03:46 42.4 °F /  5.8 °C 41.9 °F /  5.5 °C 29.77 in /  1008 hPa West 0.7 mph /  1.1 km/h 4.6 mph /  7.4 km/h 98 % 0.00 in /  0 mm
03:51 42.4 °F /  5.8 °C 41.9 °F /  5.5 °C 29.77 in /  1008 hPa West 0.5 mph /  0.8 km/h 1.2 mph /  1.9 km/h 98 % 0.00 in /  0 mm
03:56 42.4 °F /  5.8 °C 41.9 °F /  5.5 °C 29.77 in /  1008 hPa West 1.7 mph /  2.7 km/h 3.5 mph /  5.6 km/h 98 % 0.00 in /  0 mm
04:01 42.4 °F /  5.8 °C 41.9 °F /  5.5 °C 29.77 in /  1008 hPa West 1.9 mph /  3.1 km/h 4.0 mph /  6.4 km/h 98 % 0.00 in /  0 mm
04:06 42.4 °F /  5.8 °C 41.9 °F /  5.5 °C 29.77 in /  1008 hPa West 1.8 mph /  2.9 km/h 3.5 mph /  5.6 km/h 98 % 0.00 in /  0 mm
04:11 42.5 °F /  5.8 °C 42.0 °F /  5.6 °C 29.77 in /  1008 hPa WNW 0.9 mph /  1.4 km/h 3.5 mph /  5.6 km/h 98 % 0.00 in /  0 mm
04:16 42.5 °F /  5.8 °C 42.0 °F /  5.6 °C 29.77 in /  1008 hPa WNW 0.1 mph /  0.2 km/h 1.2 mph /  1.9 km/h 98 % 0.00 in /  0 mm
04:21 42.5 °F /  5.8 °C 42.0 °F /  5.6 °C 29.78 in /  1008.4 hPa Calm     98 % 0.00 in /  0 mm
04:26 42.4 °F /  5.8 °C 41.9 °F /  5.5 °C 29.77 in /  1008 hPa WNW 0.5 mph /  0.8 km/h 2.3 mph /  3.7 km/h 98 % 0.00 in /  0 mm
04:31 42.4 °F /  5.8 °C 41.9 °F /  5.5 °C 29.77 in /  1008 hPa WNW 0.6 mph /  1 km/h 2.3 mph /  3.7 km/h 98 % 0.00 in /  0 mm
04:37 42.4 °F /  5.8 °C 41.9 °F /  5.5 °C 29.78 in /  1008.4 hPa Calm     98 % 0.00 in /  0 mm
04:42 42.4 °F /  5.8 °C 41.9 °F /  5.5 °C 29.78 in /  1008.4 hPa WNW 1.5 mph /  2.4 km/h 3.5 mph /  5.6 km/h 98 % 0.00 in /  0 mm
04:47 42.4 °F /  5.8 °C 41.9 °F /  5.5 °C 29.77 in /  1008 hPa Calm     98 % 0.00 in /  0 mm
04:52 42.4 °F /  5.8 °C 41.9 °F /  5.5 °C 29.78 in /  1008.4 hPa Calm     98 % 0.00 in /  0 mm
04:57 42.4 °F /  5.8 °C 41.9 °F /  5.5 °C 29.78 in /  1008.4 hPa Calm     98 % 0.00 in /  0 mm
05:02 42.4 °F /  5.8 °C 41.9 °F /  5.5 °C 29.78 in /  1008.4 hPa Calm     98 % 0.00 in /  0 mm
05:07 42.4 °F /  5.8 °C 41.9 °F /  5.5 °C 29.78 in /  1008.4 hPa Calm     98 % 0.00 in /  0 mm
05:12 42.3 °F /  5.7 °C 41.8 °F /  5.4 °C 29.78 in /  1008.4 hPa Calm     98 % 0.00 in /  0 mm
05:17 42.3 °F /  5.7 °C 41.8 °F /  5.4 °C 29.78 in /  1008.4 hPa Calm     98 % 0.00 in /  0 mm
05:22 42.2 °F /  5.7 °C 41.7 °F /  5.4 °C 29.78 in /  1008.4 hPa Calm     98 % 0.00 in /  0 mm
05:27 42.0 °F /  5.6 °C 41.5 °F /  5.3 °C 29.78 in /  1008.4 hPa Calm     98 % 0.00 in /  0 mm
05:32 41.9 °F /  5.5 °C 41.4 °F /  5.2 °C 29.78 in /  1008.4 hPa Calm     98 % 0.00 in /  0 mm
05:37 41.8 °F /  5.4 °C 41.3 °F /  5.2 °C 29.78 in /  1008.4 hPa Calm     98 % 0.00 in /  0 mm
05:42 41.6 °F /  5.3 °C 41.1 °F /  5.1 °C 29.77 in /  1008 hPa Calm     98 % 0.00 in /  0 mm
05:47 41.5 °F /  5.3 °C 41.0 °F /  5 °C 29.78 in /  1008.4 hPa Calm     98 % 0.00 in /  0 mm
05:52 41.3 °F /  5.2 °C 40.8 °F /  4.9 °C 29.79 in /  1008.7 hPa Calm     98 % 0.00 in /  0 mm
05:57 41.2 °F /  5.1 °C 40.7 °F /  4.8 °C 29.80 in /  1009 hPa Calm     98 % 0.00 in /  0 mm
06:03 41.1 °F /  5.1 °C 40.6 °F /  4.8 °C 29.80 in /  1009 hPa Calm     98 % 0.00 in /  0 mm
06:08 41.0 °F /  5 °C 40.5 °F /  4.7 °C 29.80 in /  1009 hPa Calm     98 % 0.00 in /  0 mm
06:13 40.9 °F /  4.9 °C 40.4 °F /  4.7 °C 29.79 in /  1008.7 hPa Calm     98 % 0.00 in /  0 mm
06:18 40.8 °F /  4.9 °C 40.3 °F /  4.6 °C 29.79 in /  1008.7 hPa Calm     98 % 0.00 in /  0 mm
06:23 40.7 °F /  4.8 °C 40.2 °F /  4.6 °C 29.80 in /  1009 hPa Calm     98 % 0.00 in /  0 mm
06:28 40.5 °F /  4.7 °C 40.0 °F /  4.4 °C 29.81 in /  1009.4 hPa WNW 1.6 mph /  2.6 km/h 2.3 mph /  3.7 km/h 98 % 0.00 in /  0 mm
06:33 40.5 °F /  4.7 °C 40.0 °F /  4.4 °C 29.81 in /  1009.4 hPa Calm     98 % 0.00 in /  0 mm
06:38 40.4 °F /  4.7 °C 39.9 °F /  4.4 °C 29.81 in /  1009.4 hPa Calm     98 % 0.00 in /  0 mm
06:43 40.3 °F /  4.6 °C 39.8 °F /  4.3 °C 29.81 in /  1009.4 hPa Calm     98 % 0.00 in /  0 mm
06:48 40.3 °F /  4.6 °C 39.8 °F /  4.3 °C 29.81 in /  1009.4 hPa Calm     98 % 0.00 in /  0 mm
06:53 40.3 °F /  4.6 °C 39.8 °F /  4.3 °C 29.81 in /  1009.4 hPa Calm     98 % 0.00 in /  0 mm
06:58 40.3 °F /  4.6 °C 39.8 °F /  4.3 °C 29.82 in /  1009.7 hPa Calm   1.2 mph /  1.9 km/h 98 % 0.00 in /  0 mm
07:03 40.3 °F /  4.6 °C 39.8 °F /  4.3 °C 29.83 in /  1010 hPa WNW 1.7 mph /  2.7 km/h 3.5 mph /  5.6 km/h 98 % 0.00 in /  0 mm
07:08 40.3 °F /  4.6 °C 39.8 °F /  4.3 °C 29.83 in /  1010 hPa WNW 1.5 mph /  2.4 km/h 2.3 mph /  3.7 km/h 98 % 0.00 in /  0 mm
07:13 40.5 °F /  4.7 °C 40.0 °F /  4.4 °C 29.83 in /  1010 hPa WNW 0.2 mph /  0.3 km/h 2.0 mph /  3.2 km/h 98 % 0.00 in /  0 mm
07:18 40.7 °F /  4.8 °C 40.4 °F /  4.7 °C 29.83 in /  1010 hPa Calm   2.3 mph /  3.7 km/h 99 % 0.00 in /  0 mm
07:23 40.8 °F /  4.9 °C 40.5 °F /  4.7 °C 29.83 in /  1010 hPa WNW 0.3 mph /  0.5 km/h 2.3 mph /  3.7 km/h 99 % 0.00 in /  0 mm
07:28 40.9 °F /  4.9 °C 40.6 °F /  4.8 °C 29.84 in /  1010.4 hPa Calm   1.2 mph /  1.9 km/h 99 % 0.00 in /  0 mm
07:33 41.1 °F /  5.1 °C 40.8 °F /  4.9 °C 29.84 in /  1010.4 hPa Calm     99 % 0.00 in /  0 mm
07:38 41.2 °F /  5.1 °C 40.7 °F /  4.8 °C 29.85 in /  1010.7 hPa Calm     98 % 0.00 in /  0 mm
07:43 41.3 °F /  5.2 °C 41.0 °F /  5 °C 29.84 in /  1010.4 hPa Calm     99 % 0.00 in /  0 mm
07:48 41.5 °F /  5.3 °C 41.2 °F /  5.1 °C 29.85 in /  1010.7 hPa WNW 0.7 mph /  1.1 km/h 2.0 mph /  3.2 km/h 99 % 0.00 in /  0 mm
07:54 41.6 °F /  5.3 °C 41.3 °F /  5.2 °C 29.86 in /  1011.1 hPa WNW 0.1 mph /  0.2 km/h 2.0 mph /  3.2 km/h 99 % 0.00 in /  0 mm
07:59 41.8 °F /  5.4 °C 41.3 °F /  5.2 °C 29.86 in /  1011.1 hPa Calm     98 % 0.00 in /  0 mm
08:04 42.0 °F /  5.6 °C 41.7 °F /  5.4 °C 29.87 in /  1011.4 hPa Calm     99 % 0.00 in /  0 mm
08:09 42.1 °F /  5.6 °C 41.8 °F /  5.4 °C 29.87 in /  1011.4 hPa Calm     99 % 0.00 in /  0 mm
08:14 42.2 °F /  5.7 °C 41.9 °F /  5.5 °C 29.86 in /  1011.1 hPa Calm     99 % 0.00 in /  0 mm
08:19 42.3 °F /  5.7 °C 42.0 °F /  5.6 °C 29.86 in /  1011.1 hPa Calm     99 % 0.00 in /  0 mm
08:24 42.5 °F /  5.8 °C 42.2 °F /  5.7 °C 29.87 in /  1011.4 hPa Calm     99 % 0.00 in /  0 mm
08:29 42.6 °F /  5.9 °C 42.3 °F /  5.7 °C 29.87 in /  1011.4 hPa Calm     99 % 0.00 in /  0 mm
08:34 42.8 °F /  6 °C 42.5 °F /  5.8 °C 29.86 in /  1011.1 hPa Calm     99 % 0.00 in /  0 mm
08:39 42.9 °F /  6.1 °C 42.6 °F /  5.9 °C 29.85 in /  1010.7 hPa Calm     99 % 0.00 in /  0 mm
08:44 43.1 °F /  6.2 °C 42.8 °F /  6 °C 29.85 in /  1010.7 hPa Calm     99 % 0.00 in /  0 mm
08:49 43.3 °F /  6.3 °C 43.0 °F /  6.1 °C 29.86 in /  1011.1 hPa Calm     99 % 0.00 in /  0 mm
08:54 43.3 °F /  6.3 °C 43.0 °F /  6.1 °C 29.86 in /  1011.1 hPa Calm     99 % 0.00 in /  0 mm
08:59 43.4 °F /  6.3 °C 43.1 °F /  6.2 °C 29.86 in /  1011.1 hPa Calm     99 % 0.00 in /  0 mm
09:04 43.5 °F /  6.4 °C 43.2 °F /  6.2 °C 29.86 in /  1011.1 hPa Calm   1.2 mph /  1.9 km/h 99 % 0.00 in /  0 mm
09:09 43.5 °F /  6.4 °C 43.2 °F /  6.2 °C 29.86 in /  1011.1 hPa Calm     99 % 0.00 in /  0 mm
09:14 43.6 °F /  6.4 °C 43.3 °F /  6.3 °C 29.86 in /  1011.1 hPa NW 1.2 mph /  1.9 km/h 3.5 mph /  5.6 km/h 99 % 0.00 in /  0 mm
09:19 43.7 °F /  6.5 °C 43.4 °F /  6.3 °C 29.86 in /  1011.1 hPa Calm   3.5 mph /  5.6 km/h 99 % 0.00 in /  0 mm
09:24 43.8 °F /  6.6 °C 43.5 °F /  6.4 °C 29.86 in /  1011.1 hPa Calm     99 % 0.00 in /  0 mm
09:29 43.8 °F /  6.6 °C 43.5 °F /  6.4 °C 29.87 in /  1011.4 hPa NW 0.3 mph /  0.5 km/h 4.0 mph /  6.4 km/h 99 % 0.00 in /  0 mm
09:34 43.9 °F /  6.6 °C 43.6 °F /  6.4 °C 29.88 in /  1011.7 hPa Calm   1.2 mph /  1.9 km/h 99 % 0.00 in /  0 mm
09:39 43.9 °F /  6.6 °C 43.6 °F /  6.4 °C 29.87 in /  1011.4 hPa Calm     99 % 0.00 in /  0 mm
09:45 44.1 °F /  6.7 °C 43.8 °F /  6.6 °C 29.87 in /  1011.4 hPa WNW 2.6 mph /  4.2 km/h 4.0 mph /  6.4 km/h 99 % 0.00 in /  0 mm
09:50 44.1 °F /  6.7 °C 43.8 °F /  6.6 °C 29.88 in /  1011.7 hPa WNW 0.3 mph /  0.5 km/h 1.2 mph /  1.9 km/h 99 % 0.00 in /  0 mm
09:55 44.1 °F /  6.7 °C 43.6 °F /  6.4 °C 29.89 in /  1012.1 hPa WNW 0.4 mph /  0.6 km/h 2.3 mph /  3.7 km/h 98 % 0.00 in /  0 mm
10:00 44.1 °F /  6.7 °C 43.6 °F /  6.4 °C 29.88 in /  1011.7 hPa WNW 0.1 mph /  0.2 km/h 3.5 mph /  5.6 km/h 98 % 0.00 in /  0 mm
10:05 44.1 °F /  6.7 °C 43.6 °F /  6.4 °C 29.88 in /  1011.7 hPa WNW 4.2 mph /  6.8 km/h 6.9 mph /  11.1 km/h 98 % 0.00 in /  0 mm
10:10 44.0 °F /  6.7 °C 43.5 °F /  6.4 °C 29.89 in /  1012.1 hPa West 4.2 mph /  6.8 km/h 9.2 mph /  14.8 km/h 98 % 0.00 in /  0 mm
10:15 43.9 °F /  6.6 °C 43.4 °F /  6.3 °C 29.89 in /  1012.1 hPa NW 5.5 mph /  8.9 km/h 9.0 mph /  14.5 km/h 98 % 0.00 in /  0 mm
10:20 43.8 °F /  6.6 °C 43.3 °F /  6.3 °C 29.89 in /  1012.1 hPa WNW 0.2 mph /  0.3 km/h 3.5 mph /  5.6 km/h 98 % 0.00 in /  0 mm
10:25 43.7 °F /  6.5 °C 43.2 °F /  6.2 °C 29.89 in /  1012.1 hPa West 2.7 mph /  4.3 km/h 4.6 mph /  7.4 km/h 98 % 0.00 in /  0 mm
10:30 43.7 °F /  6.5 °C 43.2 °F /  6.2 °C 29.88 in /  1011.7 hPa West 1.0 mph /  1.6 km/h 3.5 mph /  5.6 km/h 98 % 0.00 in /  0 mm
10:35 43.8 °F /  6.6 °C 43.3 °F /  6.3 °C 29.88 in /  1011.7 hPa WNW 1.5 mph /  2.4 km/h 3.5 mph /  5.6 km/h 98 % 0.00 in /  0 mm
10:40 43.9 °F /  6.6 °C 43.4 °F /  6.3 °C 29.88 in /  1011.7 hPa NW 0.1 mph /  0.2 km/h 4.6 mph /  7.4 km/h 98 % 0.00 in /  0 mm
10:45 44.0 °F /  6.7 °C 43.5 °F /  6.4 °C 29.89 in /  1012.1 hPa WNW 0.6 mph /  1 km/h 6.9 mph /  11.1 km/h 98 % 0.00 in /  0 mm
10:50 43.9 °F /  6.6 °C 43.4 °F /  6.3 °C 29.89 in /  1012.1 hPa WNW 2.9 mph /  4.7 km/h 5.0 mph /  8 km/h 98 % 0.00 in /  0 mm
10:55 43.9 °F /  6.6 °C 43.4 °F /  6.3 °C 29.88 in /  1011.7 hPa WNW 3.1 mph /  5 km/h 5.8 mph /  9.3 km/h 98 % 0.00 in /  0 mm
11:00 43.9 °F /  6.6 °C 43.4 °F /  6.3 °C 29.88 in /  1011.7 hPa West 1.0 mph /  1.6 km/h 4.0 mph /  6.4 km/h 98 % 0.00 in /  0 mm
11:05 44.0 °F /  6.7 °C 43.5 °F /  6.4 °C 29.89 in /  1012.1 hPa WNW 2.6 mph /  4.2 km/h 6.0 mph /  9.7 km/h 98 % 0.00 in /  0 mm
11:10 44.1 °F /  6.7 °C 43.3 °F /  6.3 °C 29.89 in /  1012.1 hPa WNW 1.5 mph /  2.4 km/h 6.9 mph /  11.1 km/h 97 % 0.00 in /  0 mm
11:15 44.2 °F /  6.8 °C 43.4 °F /  6.3 °C 29.89 in /  1012.1 hPa West 2.8 mph /  4.5 km/h 4.6 mph /  7.4 km/h 97 % 0.00 in /  0 mm
11:20 44.2 °F /  6.8 °C 43.1 °F /  6.2 °C 29.89 in /  1012.1 hPa NW 1.0 mph /  1.6 km/h 2.0 mph /  3.2 km/h 96 % 0.00 in /  0 mm
11:25 44.4 °F /  6.9 °C 43.3 °F /  6.3 °C 29.88 in /  1011.7 hPa WNW 2.4 mph /  3.9 km/h 5.0 mph /  8 km/h 96 % 0.00 in /  0 mm
11:30 44.5 °F /  6.9 °C 43.2 °F /  6.2 °C 29.88 in /  1011.7 hPa WNW 3.2 mph /  5.1 km/h 4.6 mph /  7.4 km/h 95 % 0.00 in /  0 mm
11:35 44.7 °F /  7.1 °C 43.1 °F /  6.2 °C 29.88 in /  1011.7 hPa WNW 2.0 mph /  3.2 km/h 5.0 mph /  8 km/h 94 % 0.00 in /  0 mm
11:40 44.9 °F /  7.2 °C 43.0 °F /  6.1 °C 29.89 in /  1012.1 hPa WNW 3.0 mph /  4.8 km/h 5.0 mph /  8 km/h 93 % 0.00 in /  0 mm
11:45 45.1 °F /  7.3 °C 42.9 °F /  6.1 °C 29.88 in /  1011.7 hPa WNW 1.0 mph /  1.6 km/h 7.0 mph /  11.3 km/h 92 % 0.00 in /  0 mm
11:50 45.3 °F /  7.4 °C 42.8 °F /  6 °C 29.88 in /  1011.7 hPa Calm   3.0 mph /  4.8 km/h 91 % 0.00 in /  0 mm
11:55 45.5 °F /  7.5 °C 42.2 °F /  5.7 °C 29.88 in /  1011.7 hPa WSW 1.9 mph /  3.1 km/h 5.8 mph /  9.3 km/h 88 % 0.00 in /  0 mm
12:01 45.8 °F /  7.7 °C 42.2 °F /  5.7 °C 29.88 in /  1011.7 hPa South 2.8 mph /  4.5 km/h 6.9 mph /  11.1 km/h 87 % 0.00 in /  0 mm
12:06 46.1 °F /  7.8 °C 41.8 °F /  5.4 °C 29.88 in /  1011.7 hPa WSW 1.4 mph /  2.3 km/h 3.5 mph /  5.6 km/h 85 % 0.00 in /  0 mm
12:11 46.3 °F /  7.9 °C 41.7 °F /  5.4 °C 29.88 in /  1011.7 hPa WSW 3.2 mph /  5.1 km/h 5.8 mph /  9.3 km/h 84 % 0.00 in /  0 mm
12:16 46.4 °F /  8 °C 41.2 °F /  5.1 °C 29.88 in /  1011.7 hPa West 3.5 mph /  5.6 km/h 6.0 mph /  9.7 km/h 82 % 0.00 in /  0 mm
12:21 46.6 °F /  8.1 °C 40.8 °F /  4.9 °C 29.88 in /  1011.7 hPa WSW 1.7 mph /  2.7 km/h 5.8 mph /  9.3 km/h 80 % 0.00 in /  0 mm
12:26 46.7 °F /  8.2 °C 40.2 °F /  4.6 °C 29.88 in /  1011.7 hPa WNW 2.7 mph /  4.3 km/h 4.6 mph /  7.4 km/h 78 % 0.00 in /  0 mm
12:31 46.9 °F /  8.3 °C 39.7 °F /  4.3 °C 29.88 in /  1011.7 hPa WNW 3.7 mph /  6 km/h 5.8 mph /  9.3 km/h 76 % 0.00 in /  0 mm
12:36 47.1 °F /  8.4 °C 39.6 °F /  4.2 °C 29.88 in /  1011.7 hPa NW 4.3 mph /  6.9 km/h 6.9 mph /  11.1 km/h 75 % 0.00 in /  0 mm
12:41 47.4 °F /  8.6 °C 39.9 °F /  4.4 °C 29.88 in /  1011.7 hPa NW 1.4 mph /  2.3 km/h 6.9 mph /  11.1 km/h 75 % 0.00 in /  0 mm
12:46 47.6 °F /  8.7 °C 39.7 °F /  4.3 °C 29.88 in /  1011.7 hPa SW 2.4 mph /  3.9 km/h 6.0 mph /  9.7 km/h 74 % 0.00 in /  0 mm
12:51 47.8 °F /  8.8 °C 40.3 °F /  4.6 °C 29.87 in /  1011.4 hPa WSW 1.4 mph /  2.3 km/h 4.6 mph /  7.4 km/h 75 % 0.00 in /  0 mm
12:56 47.9 °F /  8.8 °C 39.7 °F /  4.3 °C 29.87 in /  1011.4 hPa West 3.7 mph /  6 km/h 8.1 mph /  13 km/h 73 % 0.00 in /  0 mm
13:01 48.0 °F /  8.9 °C 39.4 °F /  4.1 °C 29.87 in /  1011.4 hPa WSW 4.9 mph /  7.9 km/h 5.0 mph /  8 km/h 72 % 0.00 in /  0 mm
13:06 48.0 °F /  8.9 °C 39.4 °F /  4.1 °C 29.87 in /  1011.4 hPa SW 1.4 mph /  2.3 km/h 4.6 mph /  7.4 km/h 72 % 0.00 in /  0 mm
13:11 48.0 °F /  8.9 °C 39.4 °F /  4.1 °C 29.87 in /  1011.4 hPa WSW 4.3 mph /  6.9 km/h 8.1 mph /  13 km/h 72 % 0.00 in /  0 mm
13:16 47.9 °F /  8.8 °C 39.7 °F /  4.3 °C 29.87 in /  1011.4 hPa SW 2.2 mph /  3.5 km/h 3.5 mph /  5.6 km/h 73 % 0.00 in /  0 mm
13:21 47.9 °F /  8.8 °C 39.7 °F /  4.3 °C 29.87 in /  1011.4 hPa WSW 5.0 mph /  8 km/h 7.0 mph /  11.3 km/h 73 % 0.00 in /  0 mm
13:27 47.8 °F /  8.8 °C 37.7 °F /  3.2 °C 29.86 in /  1011.1 hPa WNW 4.4 mph /  7.1 km/h 5.8 mph /  9.3 km/h 68 % 0.00 in /  0 mm
13:32 47.8 °F /  8.8 °C 38.1 °F /  3.4 °C 29.86 in /  1011.1 hPa WSW 1.9 mph /  3.1 km/h 6.9 mph /  11.1 km/h 69 % 0.00 in /  0 mm
13:37 47.8 °F /  8.8 °C 37.0 °F /  2.8 °C 29.86 in /  1011.1 hPa WNW 3.3 mph /  5.3 km/h 8.1 mph /  13 km/h 66 % 0.00 in /  0 mm
13:42 47.8 °F /  8.8 °C 37.7 °F /  3.2 °C 29.86 in /  1011.1 hPa West 0.9 mph /  1.4 km/h 5.8 mph /  9.3 km/h 68 % 0.00 in /  0 mm
13:47 47.9 °F /  8.8 °C 37.5 °F /  3.1 °C 29.86 in /  1011.1 hPa West 3.1 mph /  5 km/h 4.6 mph /  7.4 km/h 67 % 0.00 in /  0 mm
13:52 48.1 °F /  8.9 °C 38.4 °F /  3.6 °C 29.86 in /  1011.1 hPa WSW 0.6 mph /  1 km/h 5.8 mph /  9.3 km/h 69 % 0.00 in /  0 mm
13:57 48.2 °F /  9 °C 37.0 °F /  2.8 °C 29.86 in /  1011.1 hPa West 0.8 mph /  1.3 km/h 6.9 mph /  11.1 km/h 65 % 0.00 in /  0 mm
14:02 48.2 °F /  9 °C 37.4 °F /  3 °C 29.85 in /  1010.7 hPa West 0.7 mph /  1.1 km/h 3.5 mph /  5.6 km/h 66 % 0.00 in /  0 mm
14:07 48.3 °F /  9.1 °C 37.1 °F /  2.8 °C 29.85 in /  1010.7 hPa WSW 0.8 mph /  1.3 km/h 3.0 mph /  4.8 km/h 65 % 0.00 in /  0 mm
14:12 48.5 °F /  9.2 °C 36.5 °F /  2.5 °C 29.85 in /  1010.7 hPa WNW 5.7 mph /  9.2 km/h 11.5 mph /  18.5 km/h 63 % 0.00 in /  0 mm
14:17 48.5 °F /  9.2 °C 35.7 °F /  2.1 °C 29.85 in /  1010.7 hPa West 4.4 mph /  7.1 km/h 6.9 mph /  11.1 km/h 61 % 0.00 in /  0 mm
14:22 48.6 °F /  9.2 °C 34.9 °F /  1.6 °C 29.85 in /  1010.7 hPa WSW 4.4 mph /  7.1 km/h 6.9 mph /  11.1 km/h 59 % 0.00 in /  0 mm
14:27 48.7 °F /  9.3 °C 35.8 °F /  2.1 °C 29.85 in /  1010.7 hPa SW 4.3 mph /  6.9 km/h 6.9 mph /  11.1 km/h 61 % 0.00 in /  0 mm
14:32 48.9 °F /  9.4 °C 36.9 °F /  2.7 °C 29.85 in /  1010.7 hPa SSW 3.0 mph /  4.8 km/h 9.2 mph /  14.8 km/h 63 % 0.00 in /  0 mm
14:37 49.0 °F /  9.4 °C 36.5 °F /  2.5 °C 29.85 in /  1010.7 hPa WSW 1.4 mph /  2.3 km/h 4.6 mph /  7.4 km/h 62 % 0.00 in /  0 mm
14:42 49.0 °F /  9.4 °C 36.1 °F /  2.3 °C 29.86 in /  1011.1 hPa WSW 8.3 mph /  13.4 km/h 12.7 mph /  20.4 km/h 61 % 0.00 in /  0 mm
14:47 48.8 °F /  9.3 °C 35.9 °F /  2.2 °C 29.87 in /  1011.4 hPa SW 3.6 mph /  5.8 km/h 12.7 mph /  20.4 km/h 61 % 0.00 in /  0 mm
14:52 48.7 °F /  9.3 °C 35.8 °F /  2.1 °C 29.86 in /  1011.1 hPa WSW 2.5 mph /  4 km/h 8.1 mph /  13 km/h 61 % 0.00 in /  0 mm
14:57 48.6 °F /  9.2 °C 35.7 °F /  2.1 °C 29.86 in /  1011.1 hPa WSW 3.7 mph /  6 km/h 8.0 mph /  12.9 km/h 61 % 0.00 in /  0 mm
15:02 48.6 °F /  9.2 °C 35.7 °F /  2.1 °C 29.86 in /  1011.1 hPa SW 6.8 mph /  10.9 km/h 8.1 mph /  13 km/h 61 % 0.00 in /  0 mm
15:08 48.6 °F /  9.2 °C 35.7 °F /  2.1 °C 29.86 in /  1011.1 hPa SW 3.6 mph /  5.8 km/h 10.4 mph /  16.7 km/h 61 % 0.00 in /  0 mm
15:13 48.6 °F /  9.2 °C 35.3 °F /  1.8 °C 29.86 in /  1011.1 hPa SSW 5.3 mph /  8.5 km/h 6.9 mph /  11.1 km/h 60 % 0.00 in /  0 mm
15:18 48.6 °F /  9.2 °C 35.7 °F /  2.1 °C 29.86 in /  1011.1 hPa WSW 2.8 mph /  4.5 km/h 6.9 mph /  11.1 km/h 61 % 0.00 in /  0 mm
15:23 48.6 °F /  9.2 °C 35.7 °F /  2.1 °C 29.86 in /  1011.1 hPa WSW 4.9 mph /  7.9 km/h 10.4 mph /  16.7 km/h 61 % 0.00 in /  0 mm
15:28 48.5 °F /  9.2 °C 35.7 °F /  2.1 °C 29.86 in /  1011.1 hPa WSW 6.8 mph /  10.9 km/h 10.4 mph /  16.7 km/h 61 % 0.00 in /  0 mm
15:38 48.6 °F /  9.2 °C 36.6 °F /  2.6 °C 29.85 in /  1010.7 hPa SW 2.0 mph /  3.2 km/h 4.6 mph /  7.4 km/h 63 % 0.00 in /  0 mm
15:43 48.6 °F /  9.2 °C 36.2 °F /  2.3 °C 29.85 in /  1010.7 hPa SW 2.8 mph /  4.5 km/h 4.6 mph /  7.4 km/h 62 % 0.00 in /  0 mm
15:48 48.7 °F /  9.3 °C 36.7 °F /  2.6 °C 29.85 in /  1010.7 hPa WSW 0.4 mph /  0.6 km/h 3.5 mph /  5.6 km/h 63 % 0.00 in /  0 mm
15:53 48.7 °F /  9.3 °C 36.3 °F /  2.4 °C 29.86 in /  1011.1 hPa WSW 3.8 mph /  6.1 km/h 7.0 mph /  11.3 km/h 62 % 0.00 in /  0 mm
15:59 48.7 °F /  9.3 °C 35.4 °F /  1.9 °C 29.86 in /  1011.1 hPa West 3.8 mph /  6.1 km/h 4.6 mph /  7.4 km/h 60 % 0.00 in /  0 mm
16:04 48.7 °F /  9.3 °C 35.8 °F /  2.1 °C 29.86 in /  1011.1 hPa West 2.3 mph /  3.7 km/h 7.0 mph /  11.3 km/h 61 % 0.00 in /  0 mm
16:09 48.8 °F /  9.3 °C 35.5 °F /  1.9 °C 29.87 in /  1011.4 hPa West 2.6 mph /  4.2 km/h 4.6 mph /  7.4 km/h 60 % 0.00 in /  0 mm
16:14 48.8 °F /  9.3 °C 35.1 °F /  1.7 °C 29.87 in /  1011.4 hPa West 0.7 mph /  1.1 km/h 3.5 mph /  5.6 km/h 59 % 0.00 in /  0 mm
16:19 48.9 °F /  9.4 °C 35.2 °F /  1.8 °C 29.87 in /  1011.4 hPa WSW 1.4 mph /  2.3 km/h 3.5 mph /  5.6 km/h 59 % 0.00 in /  0 mm
16:24 48.8 °F /  9.3 °C 35.9 °F /  2.2 °C 29.87 in /  1011.4 hPa WSW 0.6 mph /  1 km/h 3.5 mph /  5.6 km/h 61 % 0.00 in /  0 mm
16:29 48.8 °F /  9.3 °C 35.5 °F /  1.9 °C 29.88 in /  1011.7 hPa WSW 2.2 mph /  3.5 km/h 3.5 mph /  5.6 km/h 60 % 0.00 in /  0 mm
16:34 48.8 °F /  9.3 °C 35.9 °F /  2.2 °C 29.87 in /  1011.4 hPa SW 0.8 mph /  1.3 km/h 3.0 mph /  4.8 km/h 61 % 0.00 in /  0 mm
16:39 48.8 °F /  9.3 °C 36.4 °F /  2.4 °C 29.86 in /  1011.1 hPa SW 0.1 mph /  0.2 km/h 2.3 mph /  3.7 km/h 62 % 0.00 in /  0 mm
16:44 48.7 °F /  9.3 °C 35.4 °F /  1.9 °C 29.86 in /  1011.1 hPa Calm     60 % 0.00 in /  0 mm
16:49 48.8 °F /  9.3 °C 36.4 °F /  2.4 °C 29.88 in /  1011.7 hPa West 1.1 mph /  1.8 km/h 2.3 mph /  3.7 km/h 62 % 0.00 in /  0 mm
16:54 48.7 °F /  9.3 °C 37.5 °F /  3.1 °C 29.88 in /  1011.7 hPa West 0.2 mph /  0.3 km/h 2.3 mph /  3.7 km/h 65 % 0.00 in /  0 mm
16:59 48.7 °F /  9.3 °C 37.1 °F /  2.8 °C 29.88 in /  1011.7 hPa SW 0.8 mph /  1.3 km/h 3.5 mph /  5.6 km/h 64 % 0.00 in /  0 mm
17:04 48.5 °F /  9.2 °C 36.9 °F /  2.7 °C 29.88 in /  1011.7 hPa SW 0.3 mph /  0.5 km/h 3.5 mph /  5.6 km/h 64 % 0.00 in /  0 mm
17:09 48.4 °F /  9.1 °C 37.2 °F /  2.9 °C 29.87 in /  1011.4 hPa Calm     65 % 0.00 in /  0 mm
17:14 48.3 °F /  9.1 °C 36.7 °F /  2.6 °C 29.88 in /  1011.7 hPa Calm   1.2 mph /  1.9 km/h 64 % 0.00 in /  0 mm
17:19 48.2 °F /  9 °C 36.6 °F /  2.6 °C 29.88 in /  1011.7 hPa Calm     64 % 0.00 in /  0 mm
17:24 48.0 °F /  8.9 °C 36.0 °F /  2.2 °C 29.88 in /  1011.7 hPa Calm     63 % 0.00 in /  0 mm
17:29 47.8 °F /  8.8 °C 36.2 °F /  2.3 °C 29.89 in /  1012.1 hPa SW 0.2 mph /  0.3 km/h 2.3 mph /  3.7 km/h 64 % 0.00 in /  0 mm
17:34 47.7 °F /  8.7 °C 36.5 °F /  2.5 °C 29.89 in /  1012.1 hPa Calm   1.2 mph /  1.9 km/h 65 % 0.00 in /  0 mm
17:40 47.4 °F /  8.6 °C 36.2 °F /  2.3 °C 29.89 in /  1012.1 hPa Calm     65 % 0.00 in /  0 mm
17:45 47.2 °F /  8.4 °C 36.4 °F /  2.4 °C 29.90 in /  1012.4 hPa SW 0.1 mph /  0.2 km/h 2.0 mph /  3.2 km/h 66 % 0.00 in /  0 mm
17:50 46.9 °F /  8.3 °C 36.5 °F /  2.5 °C 29.89 in /  1012.1 hPa SW 1.8 mph /  2.9 km/h 3.5 mph /  5.6 km/h 67 % 0.00 in /  0 mm
17:55 46.7 °F /  8.2 °C 36.7 °F /  2.6 °C 29.89 in /  1012.1 hPa SW 0.1 mph /  0.2 km/h 1.2 mph /  1.9 km/h 68 % 0.00 in /  0 mm
18:00 46.5 °F /  8.1 °C 36.5 °F /  2.5 °C 29.90 in /  1012.4 hPa Calm     68 % 0.00 in /  0 mm
18:05 46.3 °F /  7.9 °C 36.7 °F /  2.6 °C 29.90 in /  1012.4 hPa SW 0.2 mph /  0.3 km/h 1.2 mph /  1.9 km/h 69 % 0.00 in /  0 mm
18:10 46.1 °F /  7.8 °C 36.5 °F /  2.5 °C 29.90 in /  1012.4 hPa SW 0.7 mph /  1.1 km/h 2.3 mph /  3.7 km/h 69 % 0.00 in /  0 mm
18:15 45.8 °F /  7.7 °C 35.8 °F /  2.1 °C 29.90 in /  1012.4 hPa SW 1.0 mph /  1.6 km/h 2.3 mph /  3.7 km/h 68 % 0.00 in /  0 mm
18:20 45.5 °F /  7.5 °C 36.3 °F /  2.4 °C 29.91 in /  1012.8 hPa Calm     70 % 0.00 in /  0 mm
18:25 45.2 °F /  7.3 °C 36.0 °F /  2.2 °C 29.91 in /  1012.8 hPa Calm     70 % 0.00 in /  0 mm
18:30 45.0 °F /  7.2 °C 35.8 °F /  2.1 °C 29.91 in /  1012.8 hPa SW 1.0 mph /  1.6 km/h 2.3 mph /  3.7 km/h 70 % 0.00 in /  0 mm
18:35 44.6 °F /  7 °C 35.8 °F /  2.1 °C 29.91 in /  1012.8 hPa SW 0.9 mph /  1.4 km/h 2.3 mph /  3.7 km/h 71 % 0.00 in /  0 mm
18:40 44.4 °F /  6.9 °C 35.6 °F /  2 °C 29.91 in /  1012.8 hPa SW 0.3 mph /  0.5 km/h 2.3 mph /  3.7 km/h 71 % 0.00 in /  0 mm
18:45 44.1 °F /  6.7 °C 34.9 °F /  1.6 °C 29.91 in /  1012.8 hPa SW 0.7 mph /  1.1 km/h 2.3 mph /  3.7 km/h 70 % 0.00 in /  0 mm
18:50 43.9 °F /  6.6 °C 34.7 °F /  1.5 °C 29.91 in /  1012.8 hPa WSW 1.6 mph /  2.6 km/h 3.5 mph /  5.6 km/h 70 % 0.00 in /  0 mm
18:55 43.6 °F /  6.4 °C 34.1 °F /  1.2 °C 29.91 in /  1012.8 hPa WSW 2.4 mph /  3.9 km/h 3.5 mph /  5.6 km/h 69 % 0.00 in /  0 mm
19:00 43.4 °F /  6.3 °C 33.9 °F /  1.1 °C 29.92 in /  1013.1 hPa WSW 0.7 mph /  1.1 km/h 3.5 mph /  5.6 km/h 69 % 0.00 in /  0 mm
19:05 43.3 °F /  6.3 °C 33.8 °F /  1 °C 29.92 in /  1013.1 hPa Calm   1.2 mph /  1.9 km/h 69 % 0.00 in /  0 mm
19:10 43.3 °F /  6.3 °C 34.2 °F /  1.2 °C 29.92 in /  1013.1 hPa Calm   2.3 mph /  3.7 km/h 70 % 0.00 in /  0 mm
19:16 43.2 °F /  6.2 °C 34.4 °F /  1.3 °C 29.92 in /  1013.1 hPa SW 2.0 mph /  3.2 km/h 4.0 mph /  6.4 km/h 71 % 0.00 in /  0 mm
19:21 43.2 °F /  6.2 °C 34.8 °F /  1.6 °C 29.92 in /  1013.1 hPa Calm   2.0 mph /  3.2 km/h 72 % 0.00 in /  0 mm
19:26 43.1 °F /  6.2 °C 34.7 °F /  1.5 °C 29.92 in /  1013.1 hPa SW 1.0 mph /  1.6 km/h 4.0 mph /  6.4 km/h 72 % 0.00 in /  0 mm
19:31 42.9 °F /  6.1 °C 34.5 °F /  1.4 °C 29.92 in /  1013.1 hPa SSW 1.0 mph /  1.6 km/h 3.0 mph /  4.8 km/h 72 % 0.00 in /  0 mm
19:36 42.8 °F /  6 °C 34.7 °F /  1.5 °C 29.93 in /  1013.4 hPa SSW 0.3 mph /  0.5 km/h 2.3 mph /  3.7 km/h 73 % 0.00 in /  0 mm
19:46 42.4 °F /  5.8 °C 34.3 °F /  1.3 °C 29.93 in /  1013.4 hPa SSW 1.0 mph /  1.6 km/h 2.0 mph /  3.2 km/h 73 % 0.00 in /  0 mm
19:51 42.2 °F /  5.7 °C 34.2 °F /  1.2 °C 29.93 in /  1013.4 hPa SW 2.0 mph /  3.2 km/h 4.0 mph /  6.4 km/h 73 % 0.00 in /  0 mm
19:56 42.0 °F /  5.6 °C 33.9 °F /  1.1 °C 29.93 in /  1013.4 hPa SW 1.0 mph /  1.6 km/h 4.0 mph /  6.4 km/h 73 % 0.00 in /  0 mm
20:01 41.8 °F /  5.4 °C 33.8 °F /  1 °C 29.93 in /  1013.4 hPa SW 1.0 mph /  1.6 km/h 3.5 mph /  5.6 km/h 73 % 0.00 in /  0 mm
20:06 41.6 °F /  5.3 °C 33.6 °F /  0.9 °C 29.93 in /  1013.4 hPa SSW 1.1 mph /  1.8 km/h 2.3 mph /  3.7 km/h 73 % 0.00 in /  0 mm
20:11 41.5 °F /  5.3 °C 33.5 °F /  0.8 °C 29.93 in /  1013.4 hPa SW 1.2 mph /  1.9 km/h 3.5 mph /  5.6 km/h 73 % 0.00 in /  0 mm
20:16 41.5 °F /  5.3 °C 33.8 °F /  1 °C 29.94 in /  1013.8 hPa Calm   2.3 mph /  3.7 km/h 74 % 0.00 in /  0 mm
20:21 41.3 °F /  5.2 °C 33.6 °F /  0.9 °C 29.94 in /  1013.8 hPa WSW 1.4 mph /  2.3 km/h 2.3 mph /  3.7 km/h 74 % 0.00 in /  0 mm
20:26 41.3 °F /  5.2 °C 33.3 °F /  0.7 °C 29.94 in /  1013.8 hPa WSW 0.6 mph /  1 km/h 3.5 mph /  5.6 km/h 73 % 0.00 in /  0 mm
20:31 41.2 °F /  5.1 °C 32.9 °F /  0.5 °C 29.94 in /  1013.8 hPa West 0.4 mph /  0.6 km/h 2.3 mph /  3.7 km/h 72 % 0.00 in /  0 mm
20:36 41.2 °F /  5.1 °C 32.9 °F /  0.5 °C 29.94 in /  1013.8 hPa West 2.5 mph /  4 km/h 6.0 mph /  9.7 km/h 72 % 0.00 in /  0 mm
20:41 41.3 °F /  5.2 °C 32.2 °F /  0.1 °C 29.94 in /  1013.8 hPa West 0.5 mph /  0.8 km/h 2.0 mph /  3.2 km/h 70 % 0.00 in /  0 mm
20:46 41.3 °F /  5.2 °C 32.2 °F /  0.1 °C 29.95 in /  1014.1 hPa West 0.3 mph /  0.5 km/h 2.3 mph /  3.7 km/h 70 % 0.00 in /  0 mm
20:51 41.4 °F /  5.2 °C 32.7 °F /  0.4 °C 29.95 in /  1014.1 hPa WSW 0.9 mph /  1.4 km/h 3.5 mph /  5.6 km/h 71 % 0.00 in /  0 mm
20:56 41.5 °F /  5.3 °C 32.4 °F /  0.2 °C 29.96 in /  1014.4 hPa WSW 1.6 mph /  2.6 km/h 3.5 mph /  5.6 km/h 70 % 0.00 in /  0 mm
21:01 41.6 °F /  5.3 °C 32.2 °F /  0.1 °C 29.95 in /  1014.1 hPa West 1.5 mph /  2.4 km/h 3.5 mph /  5.6 km/h 69 % 0.00 in /  0 mm
21:06 41.7 °F /  5.4 °C 32.3 °F /  0.2 °C 29.96 in /  1014.4 hPa WSW 0.9 mph /  1.4 km/h 2.3 mph /  3.7 km/h 69 % 0.00 in /  0 mm
21:11 41.8 °F /  5.4 °C 32.0 °F /  0 °C 29.96 in /  1014.4 hPa SW 1.9 mph /  3.1 km/h 4.6 mph /  7.4 km/h 68 % 0.00 in /  0 mm
21:16 41.8 °F /  5.4 °C 31.6 °F /  -0.2 °C 29.96 in /  1014.4 hPa WSW 1.7 mph /  2.7 km/h 2.3 mph /  3.7 km/h 67 % 0.00 in /  0 mm
21:21 41.9 °F /  5.5 °C 31.7 °F /  -0.2 °C 29.96 in /  1014.4 hPa West 1.2 mph /  1.9 km/h 3.5 mph /  5.6 km/h 67 % 0.00 in /  0 mm
21:26 41.9 °F /  5.5 °C 31.7 °F /  -0.2 °C 29.95 in /  1014.1 hPa West 2.6 mph /  4.2 km/h 5.8 mph /  9.3 km/h 67 % 0.00 in /  0 mm
21:32 41.9 °F /  5.5 °C 31.4 °F /  -0.3 °C 29.95 in /  1014.1 hPa WSW 0.6 mph /  1 km/h 2.3 mph /  3.7 km/h 66 % 0.00 in /  0 mm
21:37 41.9 °F /  5.5 °C 31.4 °F /  -0.3 °C 29.96 in /  1014.4 hPa West 1.5 mph /  2.4 km/h 5.0 mph /  8 km/h 66 % 0.00 in /  0 mm
21:42 41.8 °F /  5.4 °C 31.3 °F /  -0.4 °C 29.96 in /  1014.4 hPa WSW 0.4 mph /  0.6 km/h 3.5 mph /  5.6 km/h 66 % 0.00 in /  0 mm
21:47 41.9 °F /  5.5 °C 31.4 °F /  -0.3 °C 29.96 in /  1014.4 hPa WSW 0.5 mph /  0.8 km/h 2.3 mph /  3.7 km/h 66 % 0.00 in /  0 mm
21:52 41.8 °F /  5.4 °C 31.6 °F /  -0.2 °C 29.96 in /  1014.4 hPa WSW 0.5 mph /  0.8 km/h 2.0 mph /  3.2 km/h 67 % 0.00 in /  0 mm
21:57 41.8 °F /  5.4 °C 30.9 °F /  -0.6 °C 29.96 in /  1014.4 hPa WSW 1.4 mph /  2.3 km/h 3.5 mph /  5.6 km/h 65 % 0.00 in /  0 mm
22:02 41.7 °F /  5.4 °C 30.8 °F /  -0.7 °C 29.97 in /  1014.8 hPa WSW 0.2 mph /  0.3 km/h 3.5 mph /  5.6 km/h 65 % 0.00 in /  0 mm
22:07 41.6 °F /  5.3 °C 31.1 °F /  -0.5 °C 29.97 in /  1014.8 hPa WSW 1.2 mph /  1.9 km/h 3.5 mph /  5.6 km/h 66 % 0.00 in /  0 mm
22:12 41.4 °F /  5.2 °C 30.9 °F /  -0.6 °C 29.97 in /  1014.8 hPa WSW 0.2 mph /  0.3 km/h 2.3 mph /  3.7 km/h 66 % 0.00 in /  0 mm
22:17 41.3 °F /  5.2 °C 30.4 °F /  -0.9 °C 29.97 in /  1014.8 hPa WNW 0.6 mph /  1 km/h 2.3 mph /  3.7 km/h 65 % 0.00 in /  0 mm
22:22 41.2 °F /  5.1 °C 30.3 °F /  -0.9 °C 29.97 in /  1014.8 hPa West 1.0 mph /  1.6 km/h 2.3 mph /  3.7 km/h 65 % 0.00 in /  0 mm
22:27 41.1 °F /  5.1 °C 30.2 °F /  -1 °C 29.97 in /  1014.8 hPa West 0.9 mph /  1.4 km/h 2.3 mph /  3.7 km/h 65 % 0.00 in /  0 mm
22:32 41.0 °F /  5 °C 30.1 °F /  -1.1 °C 29.97 in /  1014.8 hPa Calm   2.3 mph /  3.7 km/h 65 % 0.00 in /  0 mm
22:37 40.8 °F /  4.9 °C 31.1 °F /  -0.5 °C 29.98 in /  1015.1 hPa Calm     68 % 0.00 in /  0 mm
22:42 40.5 °F /  4.7 °C 31.1 °F /  -0.5 °C 29.98 in /  1015.1 hPa Calm     69 % 0.00 in /  0 mm
22:47 40.2 °F /  4.6 °C 31.2 °F /  -0.4 °C 29.98 in /  1015.1 hPa Calm     70 % 0.00 in /  0 mm
22:52 39.9 °F /  4.4 °C 31.3 °F /  -0.4 °C 29.98 in /  1015.1 hPa Calm     71 % 0.00 in /  0 mm
22:57 39.5 °F /  4.2 °C 30.9 °F /  -0.6 °C 29.98 in /  1015.1 hPa Calm     71 % 0.00 in /  0 mm
23:03 39.0 °F /  3.9 °C 30.7 °F /  -0.7 °C 29.99 in /  1015.5 hPa Calm     72 % 0.00 in /  0 mm
23:08 38.7 °F /  3.7 °C 31.1 °F /  -0.5 °C 29.99 in /  1015.5 hPa Calm     74 % 0.00 in /  0 mm
23:13 38.4 °F /  3.6 °C 31.2 °F /  -0.4 °C 30.00 in /  1015.8 hPa Calm     75 % 0.00 in /  0 mm
23:18 37.9 °F /  3.3 °C 31.0 °F /  -0.6 °C 29.99 in /  1015.5 hPa Calm   1.2 mph /  1.9 km/h 76 % 0.00 in /  0 mm
23:23 37.6 °F /  3.1 °C 31.0 °F /  -0.6 °C 29.99 in /  1015.5 hPa West 1.1 mph /  1.8 km/h 3.5 mph /  5.6 km/h 77 % 0.00 in /  0 mm
23:28 37.3 °F /  2.9 °C 30.7 °F /  -0.7 °C 29.99 in /  1015.5 hPa WNW 0.8 mph /  1.3 km/h 3.5 mph /  5.6 km/h 77 % 0.00 in /  0 mm
23:33 37.1 °F /  2.8 °C 30.6 °F /  -0.8 °C 29.99 in /  1015.5 hPa WNW 1.3 mph /  2.1 km/h 3.5 mph /  5.6 km/h 77 % 0.00 in /  0 mm
23:38 37.0 °F /  2.8 °C 30.5 °F /  -0.8 °C 30.00 in /  1015.8 hPa WNW 1.7 mph /  2.7 km/h 3.5 mph /  5.6 km/h 77 % 0.00 in /  0 mm
23:43 36.9 °F /  2.7 °C 30.7 °F /  -0.7 °C 30.00 in /  1015.8 hPa West 1.3 mph /  2.1 km/h 3.5 mph /  5.6 km/h 78 % 0.00 in /  0 mm
23:48 36.9 °F /  2.7 °C 30.7 °F /  -0.7 °C 30.00 in /  1015.8 hPa WSW 2.5 mph /  4 km/h 3.5 mph /  5.6 km/h 78 % 0.00 in /  0 mm
23:53 36.9 °F /  2.7 °C 31.0 °F /  -0.6 °C 30.00 in /  1015.8 hPa WSW 1.3 mph /  2.1 km/h 2.3 mph /  3.7 km/h 79 % 0.00 in /  0 mm
23:58 36.9 °F /  2.7 °C 31.0 °F /  -0.6 °C 30.00 in /  1015.8 hPa WSW 1.1 mph /  1.8 km/h 2.3 mph /  3.7 km/h 79 % 0.00 in /  0 mm
Crab Meadow Weather
Compliments of Weather Underground - 3 mb

Script developed by  Jim McMurry - jmcmurry@mwt.net Adapted for the template by  Wim van der Kuil - Leuven-Template.eu

Weather Terms: Dew Point - A measure of atmospheric moisture. It is the temperature to which air must be cooled in order to reach saturation (assuming pressure and moisture content are constant).